createdAt,value
2023-05-04T00:00:01.955Z,65.4655
2023-05-04T00:01:02.340Z,65.5405
2023-05-04T00:02:02.683Z,65.5319
2023-05-04T00:03:03.177Z,65.4486
2023-05-04T00:04:03.708Z,65.0497
2023-05-04T00:05:04.087Z,65.1643
2023-05-04T00:06:04.511Z,65.1290
2023-05-04T00:07:04.852Z,65.0150
2023-05-04T00:08:05.251Z,65.4804
2023-05-04T00:09:05.626Z,65.5925
2023-05-04T00:10:06.151Z,65.6759
2023-05-04T00:11:06.664Z,65.9185
2023-05-04T00:12:07.099Z,65.8679
2023-05-04T00:13:07.548Z,65.8148
2023-05-04T00:14:07.873Z,65.9006
2023-05-04T00:15:08.217Z,65.9740
2023-05-04T00:16:10.923Z,66.7397
2023-05-04T00:17:11.476Z,66.5142
2023-05-04T00:18:11.856Z,66.3086
2023-05-04T00:19:12.254Z,66.2553
2023-05-04T00:20:12.636Z,66.2812
2023-05-04T00:21:12.985Z,66.5657
2023-05-04T00:22:13.355Z,67.1174
2023-05-04T00:23:13.731Z,67.4927
2023-05-04T00:24:14.124Z,67.7149
2023-05-04T00:25:14.473Z,67.6226
2023-05-04T00:26:14.910Z,67.6122
2023-05-04T00:27:15.318Z,67.7575
2023-05-04T00:28:15.686Z,67.6264
2023-05-04T00:29:16.035Z,67.5067
2023-05-04T00:30:16.398Z,66.7125
2023-05-04T00:31:16.783Z,66.7430
2023-05-04T00:32:17.168Z,67.4557
2023-05-04T00:33:17.534Z,68.0261
2023-05-04T00:34:17.887Z,68.2005
2023-05-04T00:35:18.238Z,67.9611
2023-05-04T00:36:18.585Z,68.4270
2023-05-04T00:37:18.963Z,68.5090
2023-05-04T00:38:19.438Z,68.3142
2023-05-04T00:39:19.790Z,68.3069
2023-05-04T00:40:20.160Z,68.4611
2023-05-04T00:41:20.486Z,68.6928
2023-05-04T00:42:20.924Z,68.7506
2023-05-04T00:43:21.254Z,68.8111
2023-05-04T00:44:21.651Z,69.1969
2023-05-04T00:45:22.009Z,69.6098
2023-05-04T00:46:22.394Z,70.2269
2023-05-04T00:47:23.230Z,70.4993
2023-05-04T00:48:23.741Z,70.5566
2023-05-04T00:49:24.210Z,70.6043
2023-05-04T00:50:24.655Z,70.4520
2023-05-04T00:51:24.998Z,70.4521
2023-05-04T00:52:25.387Z,70.1007
2023-05-04T00:53:25.746Z,70.0409
2023-05-04T00:54:26.110Z,69.8126
2023-05-04T00:55:26.492Z,69.6391
2023-05-04T00:56:26.825Z,69.4879
2023-05-04T00:57:27.154Z,69.3456
2023-05-04T00:58:27.540Z,69.0037
2023-05-04T00:59:27.913Z,68.9055
2023-05-04T01:00:28.297Z,68.7354
2023-05-04T01:01:28.764Z,68.7276
2023-05-04T01:02:29.255Z,68.5589
2023-05-04T01:03:29.598Z,68.5249
2023-05-04T01:04:29.953Z,68.7456
2023-05-04T01:05:30.314Z,68.7402
2023-05-04T01:06:30.684Z,68.8595
2023-05-04T01:07:31.073Z,68.3938
2023-05-04T01:08:31.477Z,68.9633
2023-05-04T01:09:31.903Z,69.5544
2023-05-04T01:10:32.242Z,70.1011
2023-05-04T01:11:32.622Z,70.5443
2023-05-04T01:12:33.029Z,70.6117
2023-05-04T01:13:33.371Z,70.6207
2023-05-04T01:14:33.727Z,70.7684
2023-05-04T01:15:34.123Z,70.4013
2023-05-04T01:16:34.538Z,70.3637
2023-05-04T01:17:34.975Z,70.7254
2023-05-04T01:18:35.309Z,70.6291
2023-05-04T01:19:35.657Z,70.3440
2023-05-04T01:20:36.031Z,70.1801
2023-05-04T01:21:36.370Z,70.3451
2023-05-04T01:22:36.721Z,70.3907
2023-05-04T01:23:37.097Z,70.2998
2023-05-04T01:24:37.515Z,69.9347
2023-05-04T01:25:37.880Z,69.7225
2023-05-04T01:26:38.241Z,69.7328
2023-05-04T01:27:38.637Z,69.7081
2023-05-04T01:28:39.021Z,69.3979
2023-05-04T01:29:39.378Z,69.1363
2023-05-04T01:30:39.821Z,68.6730
2023-05-04T01:31:40.139Z,68.3878
2023-05-04T01:32:40.706Z,68.3420
2023-05-04T01:33:41.030Z,68.4675
2023-05-04T01:34:41.434Z,68.3969
2023-05-04T01:35:41.770Z,68.5371
2023-05-04T01:36:42.134Z,68.3673
2023-05-04T01:37:42.490Z,68.6212
2023-05-04T01:38:42.897Z,68.9061
2023-05-04T01:39:43.318Z,68.7299
2023-05-04T01:40:43.680Z,68.7735
2023-05-04T01:41:44.026Z,68.5179
2023-05-04T01:42:44.393Z,68.1566
2023-05-04T01:43:44.752Z,67.8422
2023-05-04T01:44:45.120Z,67.9809
2023-05-04T01:45:45.501Z,68.1526
2023-05-04T01:46:45.898Z,68.7716
2023-05-04T01:47:46.241Z,68.5426
2023-05-04T01:48:46.620Z,68.3601
2023-05-04T01:49:47.013Z,68.6856
2023-05-04T01:50:47.389Z,68.9106
2023-05-04T01:51:47.799Z,69.8154
2023-05-04T01:52:48.178Z,70.0020
2023-05-04T01:53:48.519Z,70.0325
2023-05-04T01:54:48.935Z,69.9214
2023-05-04T01:55:49.274Z,70.2351
2023-05-04T01:56:49.701Z,70.5455
2023-05-04T01:57:50.046Z,71.4040
2023-05-04T01:58:50.459Z,71.4122
2023-05-04T01:59:50.816Z,71.8348
2023-05-04T02:00:51.167Z,72.3661
2023-05-04T02:01:51.550Z,72.9909
2023-05-04T02:02:52.019Z,72.6302
2023-05-04T02:03:52.451Z,72.8708
2023-05-04T02:04:52.834Z,72.8091
2023-05-04T02:05:53.216Z,73.0623
2023-05-04T02:06:53.577Z,73.3967
2023-05-04T02:07:53.957Z,73.1913
2023-05-04T02:08:54.358Z,73.3980
2023-05-04T02:09:54.713Z,73.4233
2023-05-04T02:10:55.068Z,73.3612
2023-05-04T02:11:55.450Z,73.6070
2023-05-04T02:12:55.826Z,73.4947
2023-05-04T02:13:56.216Z,73.3782
2023-05-04T02:14:56.581Z,73.1960
2023-05-04T02:15:57.027Z,72.8824
2023-05-04T02:16:57.349Z,72.6957
2023-05-04T02:17:57.793Z,72.6661
2023-05-04T02:18:58.164Z,73.1395
2023-05-04T02:19:58.536Z,72.9129
2023-05-04T02:20:58.944Z,72.9872
2023-05-04T02:21:59.310Z,72.9868
2023-05-04T02:22:59.642Z,72.5872
2023-05-04T02:24:00.058Z,73.0544
2023-05-04T02:25:00.445Z,73.3815
2023-05-04T02:26:00.817Z,73.1924
2023-05-04T02:27:01.155Z,73.2303
2023-05-04T02:28:01.542Z,73.3048
2023-05-04T02:29:01.943Z,73.0366
2023-05-04T02:30:02.527Z,73.0089
2023-05-04T02:31:03.007Z,73.2808
2023-05-04T02:32:03.580Z,73.5850
2023-05-04T02:33:04.020Z,73.5237
2023-05-04T02:34:04.393Z,73.4295
2023-05-04T02:35:04.790Z,73.4762
2023-05-04T02:36:05.157Z,73.5659
2023-05-04T02:37:07.312Z,73.3229
2023-05-04T02:38:07.890Z,73.7068
2023-05-04T02:39:08.297Z,73.7796
2023-05-04T02:40:08.649Z,73.9922
2023-05-04T02:41:08.994Z,74.1221
2023-05-04T02:42:09.382Z,74.2588
2023-05-04T02:43:09.721Z,74.4155
2023-05-04T02:44:10.124Z,73.9871
2023-05-04T02:45:10.563Z,73.8807
2023-05-04T02:46:10.953Z,73.9669
2023-05-04T02:47:11.270Z,73.8675
2023-05-04T02:48:11.639Z,73.9013
2023-05-04T02:49:11.995Z,73.6729
2023-05-04T02:50:12.408Z,73.9134
2023-05-04T02:51:12.750Z,74.0037
2023-05-04T02:52:13.143Z,73.8916
2023-05-04T02:53:13.497Z,73.3057
2023-05-04T02:54:13.899Z,72.6178
2023-05-04T02:55:14.308Z,73.0456
2023-05-04T02:56:14.682Z,73.3840
2023-05-04T02:57:15.054Z,73.1535
2023-05-04T02:58:15.446Z,72.6241
2023-05-04T02:59:15.836Z,72.7295
2023-05-04T03:00:16.323Z,73.1479
2023-05-04T03:01:16.688Z,73.4030
2023-05-04T03:02:17.036Z,73.6783
2023-05-04T03:03:17.398Z,74.0339
2023-05-04T03:04:17.831Z,74.0585
2023-05-04T03:05:18.168Z,74.2062
2023-05-04T03:06:18.562Z,74.1739
2023-05-04T03:07:18.959Z,73.8536
2023-05-04T03:08:19.327Z,74.0247
2023-05-04T03:09:19.672Z,73.5292
2023-05-04T03:10:20.085Z,73.1023
2023-05-04T03:11:20.425Z,73.1873
2023-05-04T03:12:20.837Z,73.0049
2023-05-04T03:13:21.232Z,72.5662
2023-05-04T03:14:21.599Z,72.2314
2023-05-04T03:15:21.994Z,72.0624
2023-05-04T03:16:22.524Z,71.9422
2023-05-04T03:17:22.847Z,71.3554
2023-05-04T03:18:23.278Z,71.1179
2023-05-04T03:19:23.622Z,71.0811
2023-05-04T03:20:24.029Z,71.1709
2023-05-04T03:21:24.406Z,70.9354
2023-05-04T03:22:24.801Z,71.3228
2023-05-04T03:23:25.233Z,71.5141
2023-05-04T03:24:25.593Z,71.5075
2023-05-04T03:25:25.961Z,71.7531
2023-05-04T03:26:26.346Z,71.7905
2023-05-04T03:27:26.784Z,71.4756
2023-05-04T03:28:27.146Z,72.2610
2023-05-04T03:29:27.561Z,72.2270
2023-05-04T03:30:27.973Z,72.2974
2023-05-04T03:31:28.308Z,72.3317
2023-05-04T03:32:28.710Z,72.2597
2023-05-04T03:33:29.062Z,72.1823
2023-05-04T03:34:29.460Z,72.0900
2023-05-04T03:35:29.813Z,71.4810
2023-05-04T03:36:30.232Z,72.2100
2023-05-04T03:37:30.624Z,72.6856
2023-05-04T03:38:30.987Z,72.1931
2023-05-04T03:39:31.344Z,73.3403
2023-05-04T03:40:31.734Z,73.7324
2023-05-04T03:41:32.131Z,73.7093
2023-05-04T03:42:32.511Z,73.4957
2023-05-04T03:43:32.881Z,73.2780
2023-05-04T03:44:33.320Z,73.4580
2023-05-04T03:45:33.665Z,73.8450
2023-05-04T03:46:34.117Z,74.3034
2023-05-04T03:47:34.465Z,74.4484
2023-05-04T03:48:34.866Z,74.3987
2023-05-04T03:49:35.229Z,74.5657
2023-05-04T03:50:35.624Z,74.7006
2023-05-04T03:51:35.972Z,74.9403
2023-05-04T03:52:36.372Z,75.1001
2023-05-04T03:53:36.783Z,74.6708
2023-05-04T03:54:37.195Z,74.6297
2023-05-04T03:55:37.591Z,74.5993
2023-05-04T03:56:37.963Z,74.5062
2023-05-04T03:57:38.328Z,74.2795
2023-05-04T03:58:38.724Z,74.2301
2023-05-04T03:59:39.122Z,73.8795
2023-05-04T04:00:39.557Z,73.6286
2023-05-04T04:01:39.915Z,73.9298
2023-05-04T04:02:40.405Z,74.0786
2023-05-04T04:03:40.873Z,74.1979
2023-05-04T04:04:41.307Z,74.7651
2023-05-04T04:05:41.723Z,75.0567
2023-05-04T04:06:43.449Z,75.0562
2023-05-04T04:07:43.923Z,74.5088
2023-05-04T04:08:44.337Z,74.9983
2023-05-04T04:09:44.736Z,75.4925
2023-05-04T04:10:45.096Z,75.4529
2023-05-04T04:11:45.465Z,75.3534
2023-05-04T04:12:45.889Z,75.4079
2023-05-04T04:13:46.223Z,75.1303
2023-05-04T04:14:46.696Z,75.2615
2023-05-04T04:15:47.139Z,75.4870
2023-05-04T04:16:47.561Z,75.6029
2023-05-04T04:17:47.926Z,75.6838
2023-05-04T04:18:48.302Z,75.3321
2023-05-04T04:19:48.673Z,75.0178
2023-05-04T04:20:49.051Z,74.7950
2023-05-04T04:21:49.390Z,74.4015
2023-05-04T04:22:49.800Z,74.2034
2023-05-04T04:23:50.157Z,74.6673
2023-05-04T04:24:50.585Z,74.8390
2023-05-04T04:25:50.943Z,74.1723
2023-05-04T04:26:51.317Z,74.1412
2023-05-04T04:27:51.706Z,74.7279
2023-05-04T04:28:52.065Z,74.8152
2023-05-04T04:29:52.461Z,74.9083
2023-05-04T04:30:52.912Z,75.5002
2023-05-04T04:31:53.291Z,75.5670
2023-05-04T04:32:53.698Z,75.6322
2023-05-04T04:33:54.069Z,75.3744
2023-05-04T04:34:54.442Z,74.9573
2023-05-04T04:35:54.799Z,75.0102
2023-05-04T04:36:55.192Z,75.1045
2023-05-04T04:37:55.545Z,74.9963
2023-05-04T04:38:56.020Z,75.3172
2023-05-04T04:39:56.377Z,75.3566
2023-05-04T04:40:56.790Z,75.5330
2023-05-04T04:41:57.148Z,75.5098
2023-05-04T04:42:57.562Z,75.3259
2023-05-04T04:43:57.966Z,75.2901
2023-05-04T04:44:58.396Z,75.3715
2023-05-04T04:45:58.793Z,75.6590
2023-05-04T04:46:59.144Z,75.8022
2023-05-04T04:47:59.551Z,75.7630
2023-05-04T04:48:59.908Z,75.8594
2023-05-04T04:50:00.274Z,75.6383
2023-05-04T04:51:00.674Z,75.0761
2023-05-04T04:52:01.016Z,75.1770
2023-05-04T04:53:01.415Z,75.6318
2023-05-04T04:54:01.774Z,75.7225
2023-05-04T04:55:02.186Z,75.7351
2023-05-04T04:56:02.556Z,75.6726
2023-05-04T04:57:02.918Z,75.6847
2023-05-04T04:58:03.334Z,75.7507
2023-05-04T04:59:03.724Z,75.7980
2023-05-04T05:00:04.574Z,75.7583
2023-05-04T05:01:05.142Z,75.8731
2023-05-04T05:02:05.460Z,75.9795
2023-05-04T05:03:05.869Z,75.8548
2023-05-04T05:04:06.282Z,75.9145
2023-05-04T05:05:06.828Z,75.8204
2023-05-04T05:06:07.213Z,75.7050
2023-05-04T05:07:07.663Z,75.7526
2023-05-04T05:08:08.048Z,75.8550
2023-05-04T05:09:08.440Z,75.7904
2023-05-04T05:10:08.952Z,75.7699
2023-05-04T05:11:09.293Z,75.5032
2023-05-04T05:12:09.671Z,75.0979
2023-05-04T05:13:10.122Z,75.2219
2023-05-04T05:14:10.494Z,75.5159
2023-05-04T05:15:10.857Z,75.5770
2023-05-04T05:16:11.254Z,75.7204
2023-05-04T05:17:11.606Z,75.7360
2023-05-04T05:18:12.063Z,75.5529
2023-05-04T05:19:12.414Z,75.3689
2023-05-04T05:20:12.807Z,75.3158
2023-05-04T05:21:13.208Z,75.0596
2023-05-04T05:22:13.584Z,75.0208
2023-05-04T05:23:13.997Z,74.9035
2023-05-04T05:24:14.361Z,74.3930
2023-05-04T05:25:14.750Z,74.3576
2023-05-04T05:26:15.148Z,74.0530
2023-05-04T05:27:15.517Z,73.9527
2023-05-04T05:28:15.917Z,73.4484
2023-05-04T05:29:16.289Z,72.9974
2023-05-04T05:30:16.660Z,72.8199
2023-05-04T05:31:17.009Z,72.9005
2023-05-04T05:32:17.391Z,72.7740
2023-05-04T05:33:17.898Z,72.9211
2023-05-04T05:34:18.272Z,73.3291
2023-05-04T05:35:18.632Z,73.4932
2023-05-04T05:36:19.000Z,73.5377
2023-05-04T05:37:19.423Z,73.4060
2023-05-04T05:38:19.785Z,72.8210
2023-05-04T05:39:20.178Z,72.4872
2023-05-04T05:40:20.653Z,72.3484
2023-05-04T05:41:21.018Z,72.3474
2023-05-04T05:42:21.365Z,72.4312
2023-05-04T05:43:21.733Z,72.7065
2023-05-04T05:44:22.138Z,72.6383
2023-05-04T05:45:22.546Z,72.5520
2023-05-04T05:46:22.996Z,72.3875
2023-05-04T05:47:23.394Z,71.9283
2023-05-04T05:48:23.697Z,72.1471
2023-05-04T05:49:24.128Z,72.3990
2023-05-04T05:50:24.479Z,72.1802
2023-05-04T05:51:24.880Z,72.4025
2023-05-04T05:52:25.243Z,72.5178
2023-05-04T05:53:25.667Z,72.3681
2023-05-04T05:54:26.036Z,72.3606
2023-05-04T05:55:26.417Z,72.1419
2023-05-04T05:56:26.822Z,72.1244
2023-05-04T05:57:27.213Z,72.2384
2023-05-04T05:58:27.631Z,71.9700
2023-05-04T05:59:28.015Z,71.4310
2023-05-04T06:00:28.422Z,71.3380
2023-05-04T06:01:28.877Z,71.6302
2023-05-04T06:02:29.257Z,72.0285
2023-05-04T06:03:30.782Z,72.3822
2023-05-04T06:04:31.212Z,72.0572
2023-05-04T06:05:32.572Z,72.0299
2023-05-04T06:06:32.968Z,72.0758
2023-05-04T06:07:33.337Z,72.0092
2023-05-04T06:08:33.754Z,71.9589
2023-05-04T06:09:34.165Z,71.9500
2023-05-04T06:10:34.524Z,71.6904
2023-05-04T06:11:34.900Z,71.7259
2023-05-04T06:12:35.294Z,71.7282
2023-05-04T06:13:35.726Z,71.7501
2023-05-04T06:14:36.118Z,71.7020
2023-05-04T06:15:36.542Z,71.7182
2023-05-04T06:16:36.967Z,72.1839
2023-05-04T06:17:37.350Z,72.3954
2023-05-04T06:18:37.682Z,72.5919
2023-05-04T06:19:38.113Z,72.6992
2023-05-04T06:20:38.489Z,72.2703
2023-05-04T06:21:38.894Z,72.6439
2023-05-04T06:22:39.259Z,72.8035
2023-05-04T06:23:39.624Z,72.3319
2023-05-04T06:24:40.040Z,72.2555
2023-05-04T06:25:40.399Z,71.8234
2023-05-04T06:26:40.820Z,71.5677
2023-05-04T06:27:41.197Z,71.5223
2023-05-04T06:28:41.558Z,71.7076
2023-05-04T06:29:41.982Z,71.9233
2023-05-04T06:30:42.324Z,72.0911
2023-05-04T06:31:42.813Z,71.7729
2023-05-04T06:32:43.223Z,71.4872
2023-05-04T06:33:43.615Z,70.9857
2023-05-04T06:34:43.966Z,70.4673
2023-05-04T06:35:44.365Z,70.6614
2023-05-04T06:36:44.823Z,70.7651
2023-05-04T06:37:45.258Z,70.6086
2023-05-04T06:38:45.638Z,71.0010
2023-05-04T06:39:45.978Z,71.0023
2023-05-04T06:40:46.397Z,70.6551
2023-05-04T06:41:46.826Z,70.1651
2023-05-04T06:42:47.165Z,69.8913
2023-05-04T06:43:47.520Z,69.7091
2023-05-04T06:44:47.923Z,69.9188
2023-05-04T06:45:48.291Z,70.4457
2023-05-04T06:46:48.693Z,70.0911
2023-05-04T06:47:49.092Z,70.3329
2023-05-04T06:48:49.464Z,70.4145
2023-05-04T06:49:49.812Z,70.0778
2023-05-04T06:50:50.230Z,69.4784
2023-05-04T06:51:50.636Z,69.5487
2023-05-04T06:52:51.008Z,69.7918
2023-05-04T06:53:51.408Z,70.3743
2023-05-04T06:54:51.840Z,70.9402
2023-05-04T06:55:52.195Z,71.4625
2023-05-04T06:56:52.624Z,71.5705
2023-05-04T06:57:53.033Z,71.5874
2023-05-04T06:58:53.406Z,71.3490
2023-05-04T06:59:53.801Z,71.9800
2023-05-04T07:00:54.173Z,71.3332
2023-05-04T07:01:54.581Z,70.6755
2023-05-04T07:02:54.973Z,70.8266
2023-05-04T07:03:55.393Z,71.0717
2023-05-04T07:04:55.761Z,71.3364
2023-05-04T07:05:56.191Z,71.3314
2023-05-04T07:06:56.563Z,71.5361
2023-05-04T07:07:56.928Z,71.4950
2023-05-04T07:08:57.307Z,71.5497
2023-05-04T07:09:57.717Z,71.5976
2023-05-04T07:10:58.109Z,71.6295
2023-05-04T07:11:58.483Z,71.9223
2023-05-04T07:12:58.972Z,71.6250
2023-05-04T07:13:59.282Z,71.5958
2023-05-04T07:14:59.700Z,71.7386
2023-05-04T07:16:00.166Z,72.1234
2023-05-04T07:17:00.557Z,71.7751
2023-05-04T07:18:00.892Z,71.1796
2023-05-04T07:19:01.277Z,71.0175
2023-05-04T07:20:01.820Z,70.4525
2023-05-04T07:21:21.882Z,70.1437
2023-05-04T07:22:05.247Z,70.0134
2023-05-04T07:23:05.655Z,69.6521
2023-05-04T07:24:06.087Z,69.8922
2023-05-04T07:25:06.455Z,71.6630
2023-05-04T07:26:06.797Z,71.8111
2023-05-04T07:27:07.215Z,70.5439
2023-05-04T07:28:07.569Z,69.9431
2023-05-04T07:29:07.984Z,70.2066
2023-05-04T07:30:08.411Z,70.1609
2023-05-04T07:31:08.804Z,70.0439
2023-05-04T07:32:09.323Z,70.1301
2023-05-04T07:33:09.780Z,70.2212
2023-05-04T07:34:10.198Z,69.8044
2023-05-04T07:35:10.618Z,70.1495
2023-05-04T07:36:11.015Z,70.4548
2023-05-04T07:37:11.522Z,69.7209
2023-05-04T07:38:11.989Z,69.2259
2023-05-04T07:39:12.425Z,68.8689
2023-05-04T07:40:12.805Z,70.2750
2023-05-04T07:41:13.239Z,70.4906
2023-05-04T07:42:13.647Z,68.9876
2023-05-04T07:43:14.013Z,68.5474
2023-05-04T07:44:14.494Z,68.6801
2023-05-04T07:45:14.907Z,68.7436
2023-05-04T07:46:15.396Z,68.5874
2023-05-04T07:47:15.862Z,69.1294
2023-05-04T07:48:17.806Z,68.9579
2023-05-04T07:49:18.488Z,68.6630
2023-05-04T07:50:18.904Z,68.0753
2023-05-04T07:51:19.334Z,67.8892
2023-05-04T07:52:19.744Z,68.6994
2023-05-04T07:53:20.187Z,68.7402
2023-05-04T07:54:22.828Z,68.3629
2023-05-04T07:55:23.523Z,67.4018
2023-05-04T07:56:23.978Z,67.0346
2023-05-04T07:57:24.382Z,66.9185
2023-05-04T07:58:24.766Z,67.2289
2023-05-04T07:59:25.223Z,67.4597
2023-05-04T08:00:25.631Z,67.3696
2023-05-04T08:01:26.082Z,66.8786
2023-05-04T08:02:26.622Z,67.1616
2023-05-04T08:03:27.039Z,67.9408
2023-05-04T08:04:27.433Z,67.5375
2023-05-04T08:05:27.875Z,67.2517
2023-05-04T08:06:28.339Z,67.0299
2023-05-04T08:07:28.754Z,67.3700
2023-05-04T08:08:29.220Z,67.1676
2023-05-04T08:09:29.622Z,67.3627
2023-05-04T08:10:30.009Z,67.3093
2023-05-04T08:11:30.507Z,66.0714
2023-05-04T08:12:30.958Z,65.3243
2023-05-04T08:13:31.328Z,65.6060
2023-05-04T08:14:31.785Z,66.0554
2023-05-04T08:15:32.197Z,65.7093
2023-05-04T08:16:32.653Z,65.7965
2023-05-04T08:17:33.083Z,65.8703
2023-05-04T08:18:33.493Z,66.4568
2023-05-04T08:19:33.965Z,67.1476
2023-05-04T08:20:34.434Z,67.3555
2023-05-04T08:21:34.766Z,66.1983
2023-05-04T08:22:35.223Z,65.7821
2023-05-04T08:23:35.629Z,65.6969
2023-05-04T08:24:36.097Z,65.7920
2023-05-04T08:25:36.520Z,64.9370
2023-05-04T08:26:36.892Z,64.7521
2023-05-04T08:27:37.334Z,64.8282
2023-05-04T08:28:37.736Z,64.2535
2023-05-04T08:29:38.178Z,63.9285
2023-05-04T08:30:38.639Z,64.0202
2023-05-04T08:31:39.059Z,63.7195
2023-05-04T08:32:39.480Z,63.9413
2023-05-04T08:33:39.876Z,63.7568
2023-05-04T08:34:40.255Z,64.5892
2023-05-04T08:35:40.726Z,65.1006
2023-05-04T08:36:41.087Z,64.9134
2023-05-04T08:37:41.541Z,64.5420
2023-05-04T08:38:41.985Z,65.0662
2023-05-04T08:39:42.372Z,63.6621
2023-05-04T08:40:42.833Z,63.5469
2023-05-04T08:41:43.260Z,64.0560
2023-05-04T08:42:43.654Z,65.0330
2023-05-04T08:43:44.090Z,64.5578
2023-05-04T08:44:44.481Z,64.5702
2023-05-04T08:45:44.961Z,63.4351
2023-05-04T08:46:45.379Z,62.8684
2023-05-04T08:47:45.845Z,62.2824
2023-05-04T08:48:46.227Z,62.7750
2023-05-04T08:49:46.626Z,63.7459
2023-05-04T08:50:47.044Z,63.7158
2023-05-04T08:51:47.481Z,63.3084
2023-05-04T08:52:47.883Z,62.8724
2023-05-04T08:53:48.301Z,62.9229
2023-05-04T08:54:48.700Z,62.7000
2023-05-04T08:55:49.147Z,63.2186
2023-05-04T08:56:49.549Z,63.1862
2023-05-04T08:57:51.158Z,64.0735
2023-05-04T08:58:51.626Z,63.1878
2023-05-04T08:59:52.079Z,61.4198
2023-05-04T09:00:52.579Z,63.0137
2023-05-04T09:01:53.025Z,61.3278
2023-05-04T09:02:53.540Z,60.9248
2023-05-04T09:03:54.111Z,60.9871
2023-05-04T09:04:54.583Z,61.7474
2023-05-04T09:05:55.052Z,60.8496
2023-05-04T09:06:55.471Z,61.6075
2023-05-04T09:07:55.917Z,61.7290
2023-05-04T09:08:56.334Z,60.6829
2023-05-04T09:09:56.739Z,60.1723
2023-05-04T09:10:57.139Z,60.8797
2023-05-04T09:11:57.578Z,61.2142
2023-05-04T09:12:58.200Z,61.0947
2023-05-04T09:13:58.627Z,61.6632
2023-05-04T09:14:59.025Z,61.1561
2023-05-04T09:15:59.462Z,61.0985
2023-05-04T09:16:59.877Z,61.0653
2023-05-04T09:18:00.479Z,61.1232
2023-05-04T09:19:00.867Z,61.3709
2023-05-04T09:20:01.398Z,60.8808
2023-05-04T09:21:01.824Z,61.5345
2023-05-04T09:22:02.205Z,61.5409
2023-05-04T09:23:02.589Z,61.6405
2023-05-04T09:24:03.008Z,61.1127
2023-05-04T09:25:03.661Z,61.0602
2023-05-04T09:26:04.175Z,61.5868
2023-05-04T09:27:04.580Z,61.1899
2023-05-04T09:28:05.098Z,60.7841
2023-05-04T09:29:05.502Z,60.9304
2023-05-04T09:30:05.934Z,60.8081
2023-05-04T09:31:06.356Z,61.3560
2023-05-04T09:32:06.770Z,62.0137
2023-05-04T09:33:07.162Z,63.8414
2023-05-04T09:34:07.582Z,63.2512
2023-05-04T09:35:09.519Z,60.8791
2023-05-04T09:36:11.107Z,60.8526
2023-05-04T09:37:11.558Z,61.4649
2023-05-04T09:38:11.950Z,61.2363
2023-05-04T09:39:12.391Z,61.3045
2023-05-04T09:40:12.797Z,60.3249
2023-05-04T09:41:13.182Z,59.9293
2023-05-04T09:42:13.583Z,60.2909
2023-05-04T09:43:13.976Z,62.0631
2023-05-04T09:44:14.441Z,61.3505
2023-05-04T09:45:14.877Z,60.9704
2023-05-04T09:46:15.292Z,60.4110
2023-05-04T09:47:15.681Z,60.0217
2023-05-04T09:48:16.097Z,58.9208
2023-05-04T09:49:16.489Z,58.5507
2023-05-04T09:50:20.124Z,58.6109
2023-05-04T09:51:17.932Z,59.6999
2023-05-04T09:52:18.323Z,60.0520
2023-05-04T09:53:18.770Z,60.8299
2023-05-04T09:54:19.177Z,60.1050
2023-05-04T09:55:19.606Z,59.0760
2023-05-04T09:56:20.015Z,59.5239
2023-05-04T09:57:20.438Z,60.2719
2023-05-04T09:58:20.847Z,58.9697
2023-05-04T09:59:21.278Z,59.6406
2023-05-04T10:00:21.688Z,58.7119
2023-05-04T10:01:22.138Z,59.6287
2023-05-04T10:02:23.525Z,61.6785
2023-05-04T10:03:24.175Z,62.1325
2023-05-04T10:04:24.572Z,60.3566
2023-05-04T10:05:25.048Z,58.2515
2023-05-04T10:06:25.455Z,59.0098
2023-05-04T10:07:25.850Z,59.7218
2023-05-04T10:08:26.244Z,59.8316
2023-05-04T10:09:26.680Z,59.0694
2023-05-04T10:10:27.156Z,58.9976
2023-05-04T10:11:27.576Z,59.0300
2023-05-04T10:12:28.001Z,59.5360
2023-05-04T10:13:28.394Z,59.1665
2023-05-04T10:14:28.810Z,58.5769
2023-05-04T10:15:29.212Z,58.8953
2023-05-04T10:16:29.813Z,59.0381
2023-05-04T10:17:30.176Z,58.7102
2023-05-04T10:18:30.594Z,59.7078
2023-05-04T10:19:30.995Z,58.8587
2023-05-04T10:20:31.409Z,59.1061
2023-05-04T10:21:31.828Z,58.4653
2023-05-04T10:22:32.293Z,58.4634
2023-05-04T10:23:32.698Z,57.1890
2023-05-04T10:24:33.090Z,59.2478
2023-05-04T10:25:33.517Z,58.0806
2023-05-04T10:26:33.952Z,58.0736
2023-05-04T10:27:34.349Z,57.1905
2023-05-04T10:28:34.783Z,56.6972
2023-05-04T10:29:35.192Z,56.5468
2023-05-04T10:30:35.609Z,56.0853
2023-05-04T10:31:36.072Z,57.1561
2023-05-04T10:32:36.479Z,56.9932
2023-05-04T10:33:36.883Z,55.8790
2023-05-04T10:34:37.297Z,56.0932
2023-05-04T10:35:37.712Z,56.5162
2023-05-04T10:36:38.148Z,56.7454
2023-05-04T10:37:38.549Z,56.8025
2023-05-04T10:38:39.014Z,57.0036
2023-05-04T10:39:39.407Z,56.4310
2023-05-04T10:40:39.800Z,56.1754
2023-05-04T10:41:40.250Z,56.4122
2023-05-04T10:42:40.654Z,55.4868
2023-05-04T10:43:41.080Z,55.7395
2023-05-04T10:44:41.461Z,56.8597
2023-05-04T10:45:41.930Z,57.3119
2023-05-04T10:46:42.454Z,56.2937
2023-05-04T10:47:42.898Z,56.1965
2023-05-04T10:48:43.302Z,55.2720
2023-05-04T10:49:43.739Z,54.8650
2023-05-04T10:50:44.174Z,55.5582
2023-05-04T10:51:49.457Z,54.1758
2023-05-04T10:52:47.729Z,54.2991
2023-05-04T10:53:48.171Z,53.8817
2023-05-04T10:54:48.517Z,55.1978
2023-05-04T10:55:48.959Z,54.7655
2023-05-04T10:56:49.343Z,54.7349
2023-05-04T10:57:49.785Z,53.2927
2023-05-04T10:58:50.181Z,53.0132
2023-05-04T10:59:50.609Z,52.9119
2023-05-04T11:00:51.038Z,53.2765
2023-05-04T11:01:51.447Z,52.3666
2023-05-04T11:02:52.033Z,51.7506
2023-05-04T11:03:52.542Z,52.1261
2023-05-04T11:04:52.910Z,53.1875
2023-05-04T11:05:53.364Z,52.7364
2023-05-04T11:06:53.754Z,52.1326
2023-05-04T11:07:54.170Z,50.1144
2023-05-04T11:08:54.566Z,51.1084
2023-05-04T11:09:54.962Z,51.1699
2023-05-04T11:10:55.431Z,49.8271
2023-05-04T11:11:55.837Z,49.1836
2023-05-04T11:12:56.245Z,49.7272
2023-05-04T11:13:56.657Z,49.6094
2023-05-04T11:14:57.074Z,50.4492
2023-05-04T11:15:57.486Z,52.5340
2023-05-04T11:16:57.965Z,52.8364
2023-05-04T11:17:58.383Z,53.8433
2023-05-04T11:18:58.884Z,55.8956
2023-05-04T11:19:59.214Z,54.8794
2023-05-04T11:20:59.652Z,54.4618
2023-05-04T11:22:00.108Z,57.0176
2023-05-04T11:23:00.502Z,57.3084
2023-05-04T11:24:00.923Z,54.6767
2023-05-04T11:25:01.317Z,54.8734
2023-05-04T11:26:01.813Z,54.8704
2023-05-04T11:27:02.181Z,53.2501
2023-05-04T11:28:02.641Z,52.6621
2023-05-04T11:29:03.057Z,52.5898
2023-05-04T11:30:03.559Z,50.8360
2023-05-04T11:31:04.027Z,48.4031
2023-05-04T11:32:04.478Z,48.7140
2023-05-04T11:33:04.879Z,48.6060
2023-05-04T11:34:05.378Z,46.2318
2023-05-04T11:35:05.897Z,47.2667
2023-05-04T11:36:06.392Z,46.6533
2023-05-04T11:37:06.806Z,47.1486
2023-05-04T11:38:07.250Z,48.9830
2023-05-04T11:39:07.703Z,47.7499
2023-05-04T11:40:08.109Z,45.8865
2023-05-04T11:41:08.486Z,46.1099
2023-05-04T11:42:08.964Z,46.8839
2023-05-04T11:43:09.356Z,45.3257
2023-05-04T11:44:09.763Z,44.3463
2023-05-04T11:45:10.240Z,43.3731
2023-05-04T11:46:10.657Z,43.3757
2023-05-04T11:47:11.007Z,46.1787
2023-05-04T11:48:11.605Z,44.7665
2023-05-04T11:49:11.977Z,43.2513
2023-05-04T11:50:12.410Z,43.0047
2023-05-04T11:51:12.835Z,42.0571
2023-05-04T11:52:13.236Z,42.1288
2023-05-04T11:53:13.665Z,43.6511
2023-05-04T11:54:14.168Z,43.3975
2023-05-04T11:55:14.553Z,43.1047
2023-05-04T11:56:14.942Z,44.7108
2023-05-04T11:57:15.347Z,44.0888
2023-05-04T11:58:15.781Z,42.4268
2023-05-04T11:59:16.167Z,41.2836
2023-05-04T12:00:16.580Z,40.9128
2023-05-04T12:01:17.002Z,41.1463
2023-05-04T12:02:17.461Z,42.4635
2023-05-04T12:03:18.016Z,41.4492
2023-05-04T12:04:18.559Z,40.2363
2023-05-04T12:05:19.024Z,39.9735
2023-05-04T12:06:19.420Z,43.0652
2023-05-04T12:07:19.823Z,41.3530
2023-05-04T12:08:20.276Z,41.2712
2023-05-04T12:09:20.630Z,41.4914
2023-05-04T12:10:21.107Z,40.9364